Terminal Aerodrome Forecast
Issued by NWS

Home | Current Version | Previous Version | Text Only | Print | Product List | Glossary On
Versions: 1 2 3 4 5 6 7 8 9 10 11 12 13
416
FTUS44 KJAN 261305 AAA
TAFGTR
TAF AMD
KGTR 261305Z 2613/2712 18004KT 1SM BR OVC004
     FM261400 17009KT 6SM BR BKN006 BKN250
     FM261600 19008KT P6SM BKN020 BKN250
     FM262000 21011KT P6SM SCT025 SCT090
     FM270900 17008KT P6SM BKN015 BKN025=

USA.gov is the U.S. government's official web portal to all federal, state and local government web resources and services.